フェアバンクス国際空港の過去48時間の天気

フェアバンクス国際空港 (Fairbanks, Fairbanks International Airport)

現在時刻: 9/22 16:13 AKDT (9/23 00:13 UTC) 以下の時間は現地時間です。

過去48時間のMETAR気象情報
時間 風向 風速(m/s) 視程 気温(℃) 湿度(%) 気圧(hPa) 天気現象
22 15:53 4 10km以上 5.6 43 1015.6
22 14:53 3 10km以上 4.4 50 1016
22 13:53 東北東 2 10km以上 3.3 55 1016
22 12:53 北東 3 10km以上 2.2 59 1016.1
22 11:53 北東 3 10km以上 1.1 67 1016
22 10:53 北東 3 10km以上 -0.6 75 1015.9
22 09:53 北東 2 10km以上 -1.7 78 1015.6
22 08:53 北東 2 10km以上 -3.3 81 1015.3
22 07:53 静穏 0 10km以上 -3.9 81 1014.5
22 06:53 静穏 0 10km以上 -3.9 85 1014.2
22 05:53 静穏 0 10km以上 -2.8 81 1013.9
22 04:53 静穏 0 10km以上 -2.2 78 1013.5
22 03:53 静穏 0 10km以上 -2.2 78 1013.1
22 02:53 静穏 0 10km以上 -2.2 85 1012.8
22 01:53 静穏 0 10km以上 -1.7 78 1012.2
22 00:53 静穏 0 10km以上 -1.1 75 1011.9
21 23:53 静穏 0 10km以上 -2.2 78 1011.5
21 22:53 南西 2 10km以上 0 64 1011.1
21 21:53 南南西 2 10km以上 0.6 63 1011
21 20:53 静穏 0 10km以上 1.1 61 1010.7
21 19:53 西 3 10km以上 2.2 54 1010.3
21 18:53 西北西 4 10km以上 2.8 50 1010.2
21 17:53 西北西 3 10km以上 3.3 50 1009.9
21 16:53 3 10km以上 3.3 50 1010.1
21 15:53 西 4 10km以上 3.3 52 1010
21 14:53 南南西 2 10km以上 2.8 56 1010.1
21 13:53 3 10km以上 2.8 59 1010.1
21 12:53 3 10km以上 1.7 66 1010.4
21 11:53 西 2 10km以上 2.2 52 1010.6
PAFA 222353Z 08007KT 10SM FEW060 SCT120 SCT170 06/M06 A2996 RMK AO2 SLP156 T00561061 10056 21017 58005
PAFA 222253Z 08005KT 10SM FEW110 SCT150 04/M05 A2998 RMK AO2 SLP160 T00441050
PAFA 222153Z 07004KT 10SM SCT090 BKN150 03/M05 A2998 RMK AO2 SLP160 T00331050
PAFA 222053Z 04005KT 10SM SCT100 BKN150 02/M05 A2998 RMK AO2 SLP161 T00221050 51005
PAFA 221953Z 05005KT 10SM BKN100 BKN150 01/M04 A2998 RMK AO2 SLP160 T00111044
PAFA 221853Z 05005KT 10SM SCT070 BKN100 BKN150 M01/M04 A2998 RMK AO2 SLP159 T10061044
PAFA 221753Z 04004KT 10SM SCT070 BKN100 BKN150 M02/M05 A2997 RMK AO2 SLP156 T10171050 11017 21039 53014
PAFA 221653Z 05003KT 10SM SCT070 BKN100 BKN150 M03/M06 A2995 RMK AO2 SLP153 T10331061
PAFA 221553Z 00000KT 10SM FEW070 BKN120 BKN200 M04/M07 A2993 RMK AO2 SLP145 T10391067
PAFA 221453Z 00000KT 10SM BKN180 M04/M06 A2993 RMK AO2 SLP142 T10391061 51011
PAFA 221353Z 00000KT 10SM BKN130 M03/M06 A2992 RMK AO2 SLP139 T10281056
PAFA 221253Z 00000KT 10SM BKN140 M02/M06 A2990 RMK AO2 SLP135 T10221056
PAFA 221153Z 00000KT 10SM BKN140 M02/M06 A2989 RMK AO2 SLP131 T10221056 10006 21028 51012
PAFA 221053Z 00000KT 10SM BKN140 M02/M04 A2988 RMK AO2 SLP128 T10221044
PAFA 220953Z 00000KT 10SM BKN150 M02/M05 A2987 RMK AO2 SLP122 T10171050
PAFA 220853Z 00000KT 10SM BKN160 M01/M05 A2986 RMK AO2 SLP119 T10111050 400331028 53009
PAFA 220753Z 00000KT 10SM BKN130 M02/M06 A2985 RMK AO2 SLP115 T10221056
PAFA 220653Z 23003KT 10SM BKN150 00/M06 A2983 RMK AO2 SLP111 T00001061
PAFA 220553Z 20004KT 10SM BKN150 01/M06 A2983 RMK AO2 SLP110 T00061056 10033 20000 53007
PAFA 220453Z 00000KT 10SM FEW042 BKN150 01/M06 A2982 RMK AO2 SLP107 T00111056
PAFA 220353Z 26005KT 10SM FEW042 BKN150 02/M06 A2981 RMK AO2 SLP103 T00221061
PAFA 220253Z 30007KT 10SM FEW042 BKN140 03/M07 A2981 RMK AO2 SLP102 T00281067 53001
PAFA 220153Z 30006KT 10SM SCT042 OVC140 03/M06 A2980 RMK AO2 SLP099 T00331061
PAFA 220053Z 35005KT 10SM BKN042 OVC140 03/M06 A2980 RMK AO2 SLP101 T00331061
PAFA 212353Z 27007KT 10SM BKN036 OVC140 03/M06 A2980 RMK AO2 SLP100 T00331056 10033 20011 56003
PAFA 212253Z 20003KT 10SM BKN036 OVC140 03/M05 A2980 RMK AO2 SLP101 T00281050
PAFA 212153Z VRB05KT 10SM BKN038 OVC140 03/M04 A2981 RMK AO2 SLP101 T00281044
PAFA 212053Z 19006KT 10SM FEW036 OVC140 02/M04 A2981 RMK AO2 SLP104 T00171039 58002
PAFA 211953Z 26004KT 10SM SCT040 OVC140 02/M07 A2982 RMK AO2 SLP106 T00221067